Terminal Aerodrome Forecast
Issued by NWS Lake Charles, LA

Home | Current Version | Previous Version | Text Only | Print | Product List | Glossary On
Versions: 1 2 3 4 5 6 7 8 9 10 11 12 13 14 15 16
000
FTUS44 KLCH 071120
TAFLFT
TAF
KLFT 071120Z 0712/0812 VRB03KT P6SM FEW025 BKN200
     FM071500 20011G17KT P6SM VCSH SCT035
     FM080100 18006KT P6SM FEW040 BKN200=

USA.gov is the U.S. government's official web portal to all federal, state and local government web resources and services.